TAE319 SEQM-SECU
Flight info
| Callsign | TAE319 |
|---|---|
| Flight time | 0h 35m |
| Altitude | 29000 |
| Route | REBEK3B REBEK UT5 VUTNI |
| Aircraft | A319/M-SDE3FGHIRWY/LB1 |
Departure
| Time | 2026-05-05 22:30 |
|---|---|
| Airport | Mariscal Sucre International Airport (SEQM) |
Arrival
| Time | 2026-05-05 23:05 |
|---|---|
| Airport | Mariscal Lamar Airport (SECU) |
| Time | Latitude | Longitude | Altitude | Speed | Heading |
|---|---|---|---|---|---|
| 2026-05-05 21:51 | -0.12655 | -78.35926 | 7984 ft | 0 kts | 267° |
| 2026-05-05 22:19 | -0.12654 | -78.35911 | 7989 ft | 4 kts | 267° |
| 2026-05-05 22:19 | -0.12653 | -78.35884 | 7984 ft | 4 kts | 266° |
| 2026-05-05 22:19 | -0.12650 | -78.35857 | 7984 ft | 4 kts | 258° |
| 2026-05-05 22:19 | -0.12641 | -78.35834 | 7984 ft | 4 kts | 205° |
| 2026-05-05 22:20 | -0.12635 | -78.35831 | 7984 ft | 0 kts | 178° |
| 2026-05-05 22:23 | -0.12639 | -78.35831 | 7984 ft | 3 kts | 178° |
| 2026-05-05 22:23 | -0.12678 | -78.35826 | 7990 ft | 9 kts | 159° |
| 2026-05-05 22:24 | -0.12695 | -78.35751 | 7989 ft | 15 kts | 88° |
| 2026-05-05 22:24 | -0.12690 | -78.35632 | 7985 ft | 14 kts | 90° |
| 2026-05-05 22:24 | -0.12784 | -78.35596 | 7990 ft | 19 kts | 178° |
| 2026-05-05 22:24 | -0.12920 | -78.35590 | 7986 ft | 17 kts | 178° |
| 2026-05-05 22:25 | -0.13043 | -78.35585 | 7986 ft | 14 kts | 177° |
| 2026-05-05 22:25 | -0.13113 | -78.35581 | 7986 ft | 16 kts | 178° |
| 2026-05-05 22:25 | -0.13234 | -78.35576 | 7986 ft | 17 kts | 178° |
| 2026-05-05 22:25 | -0.13337 | -78.35572 | 7987 ft | 11 kts | 178° |
| 2026-05-05 22:26 | -0.13423 | -78.35568 | 7985 ft | 14 kts | 178° |
| 2026-05-05 22:26 | -0.13500 | -78.35565 | 7985 ft | 0 kts | 178° |
| 2026-05-05 22:26 | -0.13516 | -78.35564 | 7985 ft | 5 kts | 178° |
| 2026-05-05 22:27 | -0.13574 | -78.35562 | 7985 ft | 12 kts | 177° |
| 2026-05-05 22:27 | -0.13565 | -78.35479 | 7991 ft | 21 kts | 29° |
| 2026-05-05 22:27 | -0.13430 | -78.35411 | 7987 ft | 19 kts | 26° |
| 2026-05-05 22:27 | -0.13369 | -78.35398 | 7988 ft | 0 kts | 355° |
| 2026-05-05 22:29 | -0.13367 | -78.35398 | 7993 ft | 3 kts | 355° |
| 2026-05-05 22:30 | -0.13207 | -78.35406 | 7989 ft | 55 kts | 358° |
| 2026-05-05 22:30 | -0.12601 | -78.35432 | 7988 ft | 117 kts | 357° |
| 2026-05-05 22:30 | -0.11604 | -78.35475 | 7997 ft | 167 kts | 358° |
| 2026-05-05 22:30 | -0.10461 | -78.35541 | 8640 ft | 157 kts | 358° |
| 2026-05-05 22:31 | -0.09372 | -78.35611 | 9227 ft | 157 kts | 358° |
| 2026-05-05 22:31 | -0.08271 | -78.35676 | 9756 ft | 161 kts | 358° |
| 2026-05-05 22:31 | -0.07088 | -78.35740 | 9941 ft | 180 kts | 359° |
| 2026-05-05 22:31 | -0.05766 | -78.35810 | 10083 ft | 201 kts | 359° |
| 2026-05-05 22:32 | -0.04295 | -78.35887 | 10241 ft | 223 kts | 358° |
| 2026-05-05 22:32 | -0.02667 | -78.35972 | 10416 ft | 245 kts | 358° |
| 2026-05-05 22:32 | -0.00893 | -78.36138 | 10607 ft | 269 kts | 346° |
| 2026-05-05 22:32 | 0.00715 | -78.37145 | 11095 ft | 282 kts | 309° |
| 2026-05-05 22:33 | 0.01506 | -78.38928 | 11783 ft | 287 kts | 275° |
| 2026-05-05 22:33 | 0.01198 | -78.40876 | 12501 ft | 288 kts | 242° |
| 2026-05-05 22:33 | -0.00111 | -78.42356 | 13229 ft | 288 kts | 208° |
| 2026-05-05 22:33 | -0.02010 | -78.42924 | 13921 ft | 288 kts | 181° |
| 2026-05-05 22:34 | -0.04025 | -78.43048 | 14606 ft | 292 kts | 183° |
| 2026-05-05 22:34 | -0.06065 | -78.43262 | 15284 ft | 297 kts | 185° |
| 2026-05-05 22:34 | -0.08125 | -78.43520 | 15934 ft | 301 kts | 185° |
| 2026-05-05 22:34 | -0.10251 | -78.43794 | 16577 ft | 305 kts | 185° |
| 2026-05-05 22:35 | -0.11581 | -78.43963 | 16815 ft | 307 kts | 185° |
| 2026-05-05 22:35 | -0.13743 | -78.44227 | 17172 ft | 311 kts | 185° |
| 2026-05-05 22:35 | -0.15897 | -78.44480 | 17791 ft | 314 kts | 184° |
| 2026-05-05 22:35 | -0.18062 | -78.44725 | 18242 ft | 324 kts | 184° |
| 2026-05-05 22:36 | -0.20402 | -78.44980 | 18371 ft | 344 kts | 184° |
| 2026-05-05 22:36 | -0.22853 | -78.45244 | 18501 ft | 363 kts | 184° |
| 2026-05-05 22:36 | -0.25416 | -78.45523 | 18685 ft | 378 kts | 184° |
| 2026-05-05 22:36 | -0.28061 | -78.45812 | 19115 ft | 384 kts | 184° |
| 2026-05-05 22:37 | -0.30736 | -78.46115 | 19617 ft | 389 kts | 186° |
| 2026-05-05 22:37 | -0.33395 | -78.46703 | 20126 ft | 394 kts | 193° |
| 2026-05-05 22:37 | -0.36051 | -78.47410 | 20637 ft | 397 kts | 193° |
| 2026-05-05 22:37 | -0.38738 | -78.48123 | 21128 ft | 401 kts | 193° |
| 2026-05-05 22:38 | -0.41445 | -78.48839 | 21610 ft | 404 kts | 193° |
| 2026-05-05 22:38 | -0.44172 | -78.49556 | 22082 ft | 407 kts | 193° |
| 2026-05-05 22:38 | -0.46925 | -78.50280 | 22516 ft | 411 kts | 193° |
| 2026-05-05 22:38 | -0.49702 | -78.51008 | 22936 ft | 414 kts | 193° |
| 2026-05-05 22:39 | -0.52495 | -78.51740 | 23355 ft | 416 kts | 193° |
| 2026-05-05 22:39 | -0.55310 | -78.52477 | 23795 ft | 419 kts | 193° |
| 2026-05-05 22:39 | -0.58138 | -78.53219 | 24215 ft | 422 kts | 193° |
| 2026-05-05 22:39 | -0.60987 | -78.53968 | 24635 ft | 425 kts | 193° |
| 2026-05-05 22:40 | -0.62867 | -78.54464 | 24895 ft | 426 kts | 193° |
| 2026-05-05 22:40 | -0.65792 | -78.55232 | 25311 ft | 429 kts | 193° |
| 2026-05-05 22:40 | -0.68651 | -78.55982 | 25714 ft | 431 kts | 193° |
| 2026-05-05 22:40 | -0.71558 | -78.56747 | 26117 ft | 433 kts | 193° |
| 2026-05-05 22:41 | -0.74514 | -78.57525 | 26509 ft | 435 kts | 193° |
| 2026-05-05 22:41 | -0.77448 | -78.58300 | 26894 ft | 437 kts | 193° |
| 2026-05-05 22:41 | -0.80404 | -78.59078 | 27270 ft | 440 kts | 193° |
| 2026-05-05 22:41 | -0.83362 | -78.59857 | 27649 ft | 441 kts | 193° |
| 2026-05-05 22:42 | -0.86338 | -78.60640 | 28004 ft | 444 kts | 193° |
| 2026-05-05 22:42 | -0.89329 | -78.61426 | 28353 ft | 445 kts | 193° |
| 2026-05-05 22:42 | -0.92337 | -78.62218 | 28697 ft | 447 kts | 193° |
| 2026-05-05 22:42 | -0.95354 | -78.63012 | 29030 ft | 450 kts | 193° |
| 2026-05-05 22:43 | -0.98388 | -78.63813 | 29325 ft | 453 kts | 193° |
| 2026-05-05 22:43 | -1.04356 | -78.65388 | 29402 ft | 430 kts | 193° |
| 2026-05-05 22:43 | -1.07210 | -78.66116 | 29395 ft | 415 kts | 189° |
| 2026-05-05 22:44 | -1.10070 | -78.66555 | 29390 ft | 408 kts | 186° |
| 2026-05-05 22:44 | -1.15659 | -78.67357 | 29393 ft | 405 kts | 186° |
| 2026-05-05 22:45 | -1.21232 | -78.68162 | 29394 ft | 404 kts | 186° |
| 2026-05-05 22:45 | -1.26793 | -78.68968 | 29386 ft | 404 kts | 186° |
| 2026-05-05 22:46 | -1.32349 | -78.69771 | 29383 ft | 404 kts | 186° |
| 2026-05-05 22:46 | -1.37670 | -78.70543 | 29381 ft | 403 kts | 186° |
| 2026-05-05 22:47 | -1.43216 | -78.71346 | 29379 ft | 403 kts | 186° |
| 2026-05-05 22:47 | -1.48765 | -78.72159 | 29378 ft | 403 kts | 186° |
| 2026-05-05 22:48 | -1.54310 | -78.72968 | 29381 ft | 403 kts | 186° |
| 2026-05-05 22:48 | -1.59859 | -78.73771 | 29385 ft | 403 kts | 186° |
| 2026-05-05 22:49 | -1.65409 | -78.74576 | 29389 ft | 403 kts | 186° |
| 2026-05-05 22:49 | -1.70967 | -78.75377 | 29305 ft | 404 kts | 186° |
| 2026-05-05 22:49 | -1.73752 | -78.75780 | 29055 ft | 404 kts | 186° |
| 2026-05-05 22:50 | -1.76530 | -78.76182 | 28825 ft | 402 kts | 186° |
| 2026-05-05 22:50 | -1.79289 | -78.76584 | 28457 ft | 400 kts | 186° |
| 2026-05-05 22:50 | -1.82032 | -78.76986 | 28061 ft | 398 kts | 187° |
| 2026-05-05 22:50 | -1.84771 | -78.77388 | 27662 ft | 397 kts | 187° |
| 2026-05-05 22:51 | -1.86615 | -78.77656 | 27371 ft | 395 kts | 187° |
| 2026-05-05 22:51 | -1.89331 | -78.78048 | 26960 ft | 393 kts | 187° |
| 2026-05-05 22:51 | -1.92032 | -78.78437 | 26551 ft | 391 kts | 187° |
| 2026-05-05 22:51 | -1.94724 | -78.78826 | 26110 ft | 390 kts | 187° |
| 2026-05-05 22:52 | -1.97404 | -78.79213 | 25678 ft | 388 kts | 187° |
| 2026-05-05 22:52 | -2.00069 | -78.79600 | 25240 ft | 386 kts | 187° |
| 2026-05-05 22:52 | -2.02722 | -78.79986 | 24795 ft | 384 kts | 187° |
| 2026-05-05 22:52 | -2.05358 | -78.80369 | 24348 ft | 382 kts | 187° |
| 2026-05-05 22:53 | -2.07985 | -78.80753 | 23902 ft | 380 kts | 187° |
| 2026-05-05 22:53 | -2.10597 | -78.81134 | 23461 ft | 378 kts | 187° |
| 2026-05-05 22:53 | -2.13188 | -78.81512 | 23012 ft | 375 kts | 187° |
| 2026-05-05 22:53 | -2.15764 | -78.81889 | 22570 ft | 372 kts | 187° |
| 2026-05-05 22:54 | -2.18355 | -78.82265 | 22087 ft | 370 kts | 187° |
| 2026-05-05 22:54 | -2.20899 | -78.82633 | 21654 ft | 368 kts | 187° |
| 2026-05-05 22:54 | -2.23422 | -78.82995 | 21216 ft | 365 kts | 187° |
| 2026-05-05 22:54 | -2.25925 | -78.83356 | 20789 ft | 363 kts | 187° |
| 2026-05-05 22:55 | -2.28419 | -78.83716 | 20361 ft | 361 kts | 187° |
| 2026-05-05 22:55 | -2.30893 | -78.84075 | 19931 ft | 358 kts | 187° |
| 2026-05-05 22:55 | -2.33349 | -78.84430 | 19533 ft | 354 kts | 187° |
| 2026-05-05 22:55 | -2.35774 | -78.84784 | 19090 ft | 352 kts | 187° |
| 2026-05-05 22:56 | -2.38193 | -78.85135 | 18596 ft | 351 kts | 187° |
| 2026-05-05 22:56 | -2.40666 | -78.85491 | 17995 ft | 353 kts | 187° |
| 2026-05-05 22:56 | -2.43053 | -78.85837 | 17870 ft | 341 kts | 187° |
| 2026-05-05 22:56 | -2.45359 | -78.86173 | 17731 ft | 328 kts | 187° |
| 2026-05-05 22:57 | -2.47568 | -78.86498 | 17425 ft | 315 kts | 187° |
| 2026-05-05 22:57 | -2.49711 | -78.86811 | 16991 ft | 308 kts | 187° |
| 2026-05-05 22:57 | -2.51819 | -78.87113 | 16530 ft | 305 kts | 187° |
| 2026-05-05 22:57 | -2.53922 | -78.87395 | 16162 ft | 305 kts | 186° |
| 2026-05-05 22:58 | -2.56035 | -78.87671 | 15781 ft | 306 kts | 186° |
| 2026-05-05 22:58 | -2.58174 | -78.87948 | 15390 ft | 306 kts | 186° |
| 2026-05-05 22:58 | -2.60169 | -78.88209 | 15189 ft | 301 kts | 186° |
| 2026-05-05 22:58 | -2.62284 | -78.88492 | 14758 ft | 303 kts | 187° |
| 2026-05-05 22:59 | -2.64214 | -78.88772 | 14583 ft | 297 kts | 187° |
| 2026-05-05 22:59 | -2.66311 | -78.89086 | 14288 ft | 293 kts | 187° |
| 2026-05-05 22:59 | -2.68323 | -78.89389 | 13973 ft | 292 kts | 187° |
| 2026-05-05 22:59 | -2.70311 | -78.89691 | 13778 ft | 284 kts | 187° |
| 2026-05-05 23:00 | -2.73993 | -78.90408 | 13441 ft | 260 kts | 197° |
| 2026-05-05 23:00 | -2.75665 | -78.91070 | 13189 ft | 261 kts | 205° |
| 2026-05-05 23:00 | -2.77244 | -78.91986 | 12796 ft | 264 kts | 214° |
| 2026-05-05 23:01 | -2.78677 | -78.93131 | 12397 ft | 266 kts | 222° |
| 2026-05-05 23:01 | -2.79937 | -78.94491 | 11997 ft | 267 kts | 231° |
| 2026-05-05 23:01 | -2.81029 | -78.95979 | 11581 ft | 264 kts | 233° |
| 2026-05-05 23:01 | -2.82104 | -78.97450 | 11128 ft | 260 kts | 233° |
| 2026-05-05 23:02 | -2.83159 | -78.98883 | 10871 ft | 248 kts | 232° |
| 2026-05-05 23:02 | -2.84151 | -79.00227 | 10763 ft | 233 kts | 232° |
| 2026-05-05 23:02 | -2.85099 | -79.01507 | 10722 ft | 225 kts | 232° |
| 2026-05-05 23:02 | -2.86035 | -79.02763 | 10622 ft | 224 kts | 232° |
| 2026-05-05 23:03 | -2.86973 | -79.04020 | 10390 ft | 219 kts | 231° |
| 2026-05-05 23:03 | -2.88112 | -79.04932 | 10066 ft | 206 kts | 200° |
| 2026-05-05 23:03 | -2.89470 | -79.05084 | 9791 ft | 191 kts | 169° |
| 2026-05-05 23:03 | -2.90615 | -79.04576 | 9558 ft | 172 kts | 141° |
| 2026-05-05 23:04 | -2.91309 | -79.03701 | 9337 ft | 155 kts | 116° |
| 2026-05-05 23:04 | -2.91552 | -79.02676 | 9142 ft | 150 kts | 92° |
| 2026-05-05 23:04 | -2.91370 | -79.01675 | 8956 ft | 149 kts | 70° |
| 2026-05-05 23:04 | -2.90805 | -79.00809 | 8772 ft | 149 kts | 51° |
| 2026-05-05 23:05 | -2.90171 | -78.99992 | 8574 ft | 149 kts | 54° |
| 2026-05-05 23:05 | -2.89526 | -78.99187 | 8366 ft | 149 kts | 53° |
| 2026-05-05 23:05 | -2.88986 | -78.98491 | 8291 ft | 87 kts | 51° |
| 2026-05-05 23:05 | -2.88790 | -78.98243 | 8289 ft | 19 kts | 51° |
| 2026-05-05 23:06 | -2.88693 | -78.98119 | 8284 ft | 25 kts | 51° |
| 2026-05-05 23:06 | -2.88575 | -78.97969 | 8282 ft | 28 kts | 52° |
| 2026-05-05 23:06 | -2.88473 | -78.97838 | 8271 ft | 12 kts | 52° |
| 2026-05-05 23:06 | -2.88418 | -78.97789 | 8269 ft | 8 kts | 121° |
| 2026-05-05 23:07 | -2.88437 | -78.97795 | 8267 ft | 3 kts | 227° |
| 2026-05-05 23:07 | -2.88455 | -78.97816 | 8269 ft | 5 kts | 229° |
| 2026-05-05 23:07 | -2.88484 | -78.97850 | 8276 ft | 8 kts | 231° |
| 2026-05-05 23:07 | -2.88525 | -78.97903 | 8278 ft | 12 kts | 232° |
| 2026-05-05 23:08 | -2.88588 | -78.97985 | 8284 ft | 18 kts | 231° |
| 2026-05-05 23:08 | -2.88682 | -78.98103 | 8284 ft | 25 kts | 231° |
| 2026-05-05 23:08 | -2.88806 | -78.98260 | 8286 ft | 32 kts | 232° |
| 2026-05-05 23:08 | -2.88923 | -78.98411 | 8289 ft | 26 kts | 232° |
| 2026-05-05 23:09 | -2.89004 | -78.98523 | 8292 ft | 9 kts | 266° |
| 2026-05-05 23:09 | -2.88985 | -78.98546 | 8292 ft | 4 kts | 310° |
| 2026-05-05 23:09 | -2.88968 | -78.98570 | 8293 ft | 4 kts | 271° |
| 2026-05-05 23:09 | -2.88984 | -78.98602 | 8292 ft | 6 kts | 233° |
| 2026-05-05 23:10 | -2.89010 | -78.98637 | 8294 ft | 7 kts | 233° |
| 2026-05-05 23:10 | -2.89026 | -78.98658 | 8296 ft | 1 kts | 233° |
| 2026-05-05 23:10 | -2.89031 | -78.98665 | 8297 ft | 1 kts | 233° |
| 2026-05-05 23:10 | -2.89037 | -78.98673 | 8296 ft | 3 kts | 231° |
| 2026-05-05 23:11 | -2.89054 | -78.98701 | 8299 ft | 4 kts | 270° |
| 2026-05-05 23:11 | -2.89043 | -78.98715 | 8299 ft | 3 kts | 305° |
| 2026-05-05 23:11 | -2.89030 | -78.98726 | 8299 ft | 0 kts | 323° |
| 2026-05-05 23:11 | -2.89024 | -78.98731 | 8299 ft | 0 kts | 321° |